sensor_id;sensor_type;location;lat;lon;timestamp;temperature;humidity
12957;DHT22;6543;48.836;10.092;2023-06-24T00:01:38;16.70;99.90
12957;DHT22;6543;48.836;10.092;2023-06-24T00:04:06;17.40;99.90
12957;DHT22;6543;48.836;10.092;2023-06-24T00:06:33;16.70;99.90
12957;DHT22;6543;48.836;10.092;2023-06-24T00:09:00;16.60;99.90
12957;DHT22;6543;48.836;10.092;2023-06-24T00:11:28;16.70;99.90
12957;DHT22;6543;48.836;10.092;2023-06-24T00:13:56;16.50;99.90
12957;DHT22;6543;48.836;10.092;2023-06-24T00:16:23;16.50;99.90
12957;DHT22;6543;48.836;10.092;2023-06-24T00:18:54;16.60;99.90
12957;DHT22;6543;48.836;10.092;2023-06-24T00:21:25;16.80;99.90
12957;DHT22;6543;48.836;10.092;2023-06-24T00:23:56;16.50;99.90
12957;DHT22;6543;48.836;10.092;2023-06-24T00:26:24;16.50;99.90
12957;DHT22;6543;48.836;10.092;2023-06-24T00:28:50;16.40;99.90
12957;DHT22;6543;48.836;10.092;2023-06-24T00:31:18;17.50;99.90
12957;DHT22;6543;48.836;10.092;2023-06-24T00:33:45;16.50;99.90
12957;DHT22;6543;48.836;10.092;2023-06-24T00:36:12;16.50;99.90
12957;DHT22;6543;48.836;10.092;2023-06-24T00:38:41;16.40;99.90
12957;DHT22;6543;48.836;10.092;2023-06-24T00:41:08;16.40;99.90
12957;DHT22;6543;48.836;10.092;2023-06-24T00:43:35;16.40;99.90
12957;DHT22;6543;48.836;10.092;2023-06-24T00:46:03;16.50;99.90
12957;DHT22;6543;48.836;10.092;2023-06-24T00:48:32;17.30;99.90
12957;DHT22;6543;48.836;10.092;2023-06-24T00:51:00;16.40;99.90
12957;DHT22;6543;48.836;10.092;2023-06-24T00:53:27;16.80;99.90
12957;DHT22;6543;48.836;10.092;2023-06-24T00:55:56;16.50;99.90
12957;DHT22;6543;48.836;10.092;2023-06-24T00:58:28;16.50;99.90
12957;DHT22;6543;48.836;10.092;2023-06-24T01:00:56;16.40;99.90
12957;DHT22;6543;48.836;10.092;2023-06-24T01:03:24;16.30;99.90
12957;DHT22;6543;48.836;10.092;2023-06-24T01:05:52;16.30;99.90
12957;DHT22;6543;48.836;10.092;2023-06-24T01:08:20;16.30;99.90
12957;DHT22;6543;48.836;10.092;2023-06-24T01:10:48;16.80;99.90
12957;DHT22;6543;48.836;10.092;2023-06-24T01:13:18;16.70;99.90
12957;DHT22;6543;48.836;10.092;2023-06-24T01:15:45;16.10;99.90
12957;DHT22;6543;48.836;10.092;2023-06-24T01:18:20;16.00;99.90
12957;DHT22;6543;48.836;10.092;2023-06-24T01:20:52;16.00;99.90
12957;DHT22;6543;48.836;10.092;2023-06-24T01:23:56;15.90;99.90
12957;DHT22;6543;48.836;10.092;2023-06-24T01:27:06;15.90;99.90
12957;DHT22;6543;48.836;10.092;2023-06-24T01:29:55;16.70;99.90
12957;DHT22;6543;48.836;10.092;2023-06-24T01:32:26;15.90;99.90
12957;DHT22;6543;48.836;10.092;2023-06-24T01:34:58;15.80;99.90
12957;DHT22;6543;48.836;10.092;2023-06-24T01:37:28;15.60;99.90
12957;DHT22;6543;48.836;10.092;2023-06-24T01:40:04;15.60;99.90
12957;DHT22;6543;48.836;10.092;2023-06-24T01:42:37;15.50;99.90
12957;DHT22;6543;48.836;10.092;2023-06-24T01:45:06;15.40;99.90
12957;DHT22;6543;48.836;10.092;2023-06-24T01:47:38;15.40;99.90
12957;DHT22;6543;48.836;10.092;2023-06-24T01:50:11;15.40;99.90
12957;DHT22;6543;48.836;10.092;2023-06-24T01:52:40;15.70;99.90
12957;DHT22;6543;48.836;10.092;2023-06-24T01:55:11;15.20;99.90
12957;DHT22;6543;48.836;10.092;2023-06-24T01:57:40;14.20;99.90
12957;DHT22;6543;48.836;10.092;2023-06-24T02:00:09;15.10;99.90
12957;DHT22;6543;48.836;10.092;2023-06-24T02:02:39;15.00;99.90
12957;DHT22;6543;48.836;10.092;2023-06-24T02:05:08;14.90;99.90
12957;DHT22;6543;48.836;10.092;2023-06-24T02:07:36;14.80;99.90
12957;DHT22;6543;48.836;10.092;2023-06-24T02:10:06;14.80;99.90
12957;DHT22;6543;48.836;10.092;2023-06-24T02:12:34;14.80;99.90
12957;DHT22;6543;48.836;10.092;2023-06-24T02:15:02;14.80;99.90
12957;DHT22;6543;48.836;10.092;2023-06-24T02:17:32;14.80;99.90
12957;DHT22;6543;48.836;10.092;2023-06-24T02:20:01;15.30;99.90
12957;DHT22;6543;48.836;10.092;2023-06-24T02:22:32;14.80;99.90
12957;DHT22;6543;48.836;10.092;2023-06-24T02:24:59;14.80;99.90
12957;DHT22;6543;48.836;10.092;2023-06-24T02:27:26;14.80;99.90
12957;DHT22;6543;48.836;10.092;2023-06-24T02:29:54;14.70;99.90
12957;DHT22;6543;48.836;10.092;2023-06-24T02:32:22;15.00;99.90
12957;DHT22;6543;48.836;10.092;2023-06-24T02:34:49;14.60;99.90
12957;DHT22;6543;48.836;10.092;2023-06-24T02:37:17;13.90;99.90
12957;DHT22;6543;48.836;10.092;2023-06-24T02:39:44;14.50;99.90
12957;DHT22;6543;48.836;10.092;2023-06-24T02:42:11;15.50;99.90
12957;DHT22;6543;48.836;10.092;2023-06-24T02:44:38;14.30;99.90
12957;DHT22;6543;48.836;10.092;2023-06-24T02:47:09;14.70;99.90
12957;DHT22;6543;48.836;10.092;2023-06-24T02:49:37;15.60;99.90
12957;DHT22;6543;48.836;10.092;2023-06-24T02:52:05;15.10;99.90
12957;DHT22;6543;48.836;10.092;2023-06-24T02:54:35;14.30;99.90
12957;DHT22;6543;48.836;10.092;2023-06-24T02:57:04;14.30;99.90
12957;DHT22;6543;48.836;10.092;2023-06-24T02:59:32;14.20;99.90
12957;DHT22;6543;48.836;10.092;2023-06-24T03:01:59;14.40;99.90
12957;DHT22;6543;48.836;10.092;2023-06-24T03:04:28;13.90;99.90
12957;DHT22;6543;48.836;10.092;2023-06-24T03:06:55;13.80;99.90
12957;DHT22;6543;48.836;10.092;2023-06-24T03:09:26;13.50;99.90
12957;DHT22;6543;48.836;10.092;2023-06-24T03:11:54;14.70;99.90
12957;DHT22;6543;48.836;10.092;2023-06-24T03:14:21;13.60;99.90
12957;DHT22;6543;48.836;10.092;2023-06-24T03:16:48;13.60;99.90
12957;DHT22;6543;48.836;10.092;2023-06-24T03:19:15;14.30;99.90
12957;DHT22;6543;48.836;10.092;2023-06-24T03:21:42;13.60;99.90
12957;DHT22;6543;48.836;10.092;2023-06-24T03:24:09;14.50;99.90
12957;DHT22;6543;48.836;10.092;2023-06-24T03:26:37;14.40;99.90
12957;DHT22;6543;48.836;10.092;2023-06-24T03:29:06;14.60;99.90
12957;DHT22;6543;48.836;10.092;2023-06-24T03:31:34;15.00;99.90
12957;DHT22;6543;48.836;10.092;2023-06-24T03:34:01;15.00;99.90
12957;DHT22;6543;48.836;10.092;2023-06-24T03:36:28;13.70;99.90
12957;DHT22;6543;48.836;10.092;2023-06-24T03:38:55;14.70;99.90
12957;DHT22;6543;48.836;10.092;2023-06-24T03:41:22;13.60;99.90
12957;DHT22;6543;48.836;10.092;2023-06-24T03:43:49;13.60;99.90
12957;DHT22;6543;48.836;10.092;2023-06-24T03:46:17;13.90;99.90
12957;DHT22;6543;48.836;10.092;2023-06-24T03:48:44;14.10;99.90
12957;DHT22;6543;48.836;10.092;2023-06-24T03:51:12;14.00;99.90
12957;DHT22;6543;48.836;10.092;2023-06-24T03:53:39;13.40;99.90
12957;DHT22;6543;48.836;10.092;2023-06-24T03:56:06;13.50;99.90
12957;DHT22;6543;48.836;10.092;2023-06-24T03:58:32;14.00;99.90
12957;DHT22;6543;48.836;10.092;2023-06-24T04:01:01;15.00;99.90
12957;DHT22;6543;48.836;10.092;2023-06-24T04:03:30;14.10;99.90
12957;DHT22;6543;48.836;10.092;2023-06-24T04:05:57;13.80;99.90
12957;DHT22;6543;48.836;10.092;2023-06-24T04:08:27;13.90;99.90
12957;DHT22;6543;48.836;10.092;2023-06-24T04:10:55;14.00;99.90
12957;DHT22;6543;48.836;10.092;2023-06-24T04:13:22;13.80;99.90
12957;DHT22;6543;48.836;10.092;2023-06-24T04:15:49;14.00;99.90
12957;DHT22;6543;48.836;10.092;2023-06-24T04:18:16;14.00;99.90
12957;DHT22;6543;48.836;10.092;2023-06-24T04:20:44;14.70;99.90
12957;DHT22;6543;48.836;10.092;2023-06-24T04:23:12;14.60;99.90
12957;DHT22;6543;48.836;10.092;2023-06-24T04:25:40;14.30;99.90
12957;DHT22;6543;48.836;10.092;2023-06-24T04:28:07;14.60;99.90
12957;DHT22;6543;48.836;10.092;2023-06-24T04:30:34;14.50;99.90
12957;DHT22;6543;48.836;10.092;2023-06-24T04:33:04;14.60;99.90
12957;DHT22;6543;48.836;10.092;2023-06-24T04:35:31;13.60;99.90
12957;DHT22;6543;48.836;10.092;2023-06-24T04:37:59;14.60;99.90
12957;DHT22;6543;48.836;10.092;2023-06-24T04:40:27;14.70;99.90
12957;DHT22;6543;48.836;10.092;2023-06-24T04:42:54;15.50;99.90
12957;DHT22;6543;48.836;10.092;2023-06-24T04:45:21;15.80;99.90
12957;DHT22;6543;48.836;10.092;2023-06-24T04:47:49;15.10;99.90
12957;DHT22;6543;48.836;10.092;2023-06-24T04:50:16;16.00;99.90
12957;DHT22;6543;48.836;10.092;2023-06-24T04:52:43;15.50;99.90
12957;DHT22;6543;48.836;10.092;2023-06-24T04:55:12;16.10;99.90
12957;DHT22;6543;48.836;10.092;2023-06-24T04:57:39;16.70;99.90
12957;DHT22;6543;48.836;10.092;2023-06-24T05:00:08;15.90;99.90
12957;DHT22;6543;48.836;10.092;2023-06-24T05:02:36;16.00;99.90
12957;DHT22;6543;48.836;10.092;2023-06-24T05:05:03;16.20;99.90
12957;DHT22;6543;48.836;10.092;2023-06-24T05:07:30;16.40;99.90
12957;DHT22;6543;48.836;10.092;2023-06-24T05:09:57;16.80;99.90
12957;DHT22;6543;48.836;10.092;2023-06-24T05:12:25;17.50;99.90
12957;DHT22;6543;48.836;10.092;2023-06-24T05:14:52;17.10;99.90
12957;DHT22;6543;48.836;10.092;2023-06-24T05:17:20;17.20;99.90
12957;DHT22;6543;48.836;10.092;2023-06-24T05:19:47;17.40;99.90
12957;DHT22;6543;48.836;10.092;2023-06-24T05:22:14;17.80;99.90
12957;DHT22;6543;48.836;10.092;2023-06-24T05:24:41;19.00;99.90
12957;DHT22;6543;48.836;10.092;2023-06-24T05:27:09;18.10;99.90
12957;DHT22;6543;48.836;10.092;2023-06-24T05:29:37;18.40;99.90
12957;DHT22;6543;48.836;10.092;2023-06-24T05:32:05;19.40;99.90
12957;DHT22;6543;48.836;10.092;2023-06-24T05:34:32;18.50;99.90
12957;DHT22;6543;48.836;10.092;2023-06-24T05:37:00;18.50;99.90
12957;DHT22;6543;48.836;10.092;2023-06-24T05:39:27;19.20;99.90
12957;DHT22;6543;48.836;10.092;2023-06-24T05:41:55;18.50;99.90
12957;DHT22;6543;48.836;10.092;2023-06-24T05:44:23;18.50;99.90
12957;DHT22;6543;48.836;10.092;2023-06-24T05:46:51;18.60;99.90
12957;DHT22;6543;48.836;10.092;2023-06-24T05:49:18;19.30;99.90
12957;DHT22;6543;48.836;10.092;2023-06-24T05:51:45;18.60;99.90
12957;DHT22;6543;48.836;10.092;2023-06-24T05:54:12;18.90;99.90
12957;DHT22;6543;48.836;10.092;2023-06-24T05:56:40;19.20;99.90
12957;DHT22;6543;48.836;10.092;2023-06-24T05:59:07;19.10;99.90
12957;DHT22;6543;48.836;10.092;2023-06-24T06:01:34;19.10;99.90
12957;DHT22;6543;48.836;10.092;2023-06-24T06:04:02;19.80;99.90
12957;DHT22;6543;48.836;10.092;2023-06-24T06:06:29;18.90;99.90
12957;DHT22;6543;48.836;10.092;2023-06-24T06:08:56;18.90;99.90
12957;DHT22;6543;48.836;10.092;2023-06-24T06:11:23;18.70;99.90
12957;DHT22;6543;48.836;10.092;2023-06-24T06:13:50;18.80;99.90
12957;DHT22;6543;48.836;10.092;2023-06-24T06:16:18;19.00;99.90
12957;DHT22;6543;48.836;10.092;2023-06-24T06:18:45;19.30;99.90
12957;DHT22;6543;48.836;10.092;2023-06-24T06:21:14;19.40;99.90
12957;DHT22;6543;48.836;10.092;2023-06-24T06:26:08;19.80;99.90
12957;DHT22;6543;48.836;10.092;2023-06-24T06:28:35;20.00;99.90
12957;DHT22;6543;48.836;10.092;2023-06-24T06:31:02;19.70;99.90
12957;DHT22;6543;48.836;10.092;2023-06-24T06:33:29;19.80;99.90
12957;DHT22;6543;48.836;10.092;2023-06-24T06:35:56;19.90;99.90
12957;DHT22;6543;48.836;10.092;2023-06-24T06:38:25;20.20;99.90
12957;DHT22;6543;48.836;10.092;2023-06-24T06:40:52;20.10;99.90
12957;DHT22;6543;48.836;10.092;2023-06-24T06:43:19;20.00;99.90
12957;DHT22;6543;48.836;10.092;2023-06-24T06:45:47;20.20;99.90
12957;DHT22;6543;48.836;10.092;2023-06-24T06:48:13;20.00;99.90
12957;DHT22;6543;48.836;10.092;2023-06-24T06:50:40;20.10;99.90
12957;DHT22;6543;48.836;10.092;2023-06-24T06:53:07;20.30;99.90
12957;DHT22;6543;48.836;10.092;2023-06-24T06:55:36;20.20;99.90
12957;DHT22;6543;48.836;10.092;2023-06-24T06:58:04;20.50;99.90
12957;DHT22;6543;48.836;10.092;2023-06-24T07:00:31;20.70;99.90
12957;DHT22;6543;48.836;10.092;2023-06-24T07:02:58;21.00;99.90
12957;DHT22;6543;48.836;10.092;2023-06-24T07:05:25;21.30;99.90
12957;DHT22;6543;48.836;10.092;2023-06-24T07:07:52;21.30;99.90
12957;DHT22;6543;48.836;10.092;2023-06-24T07:10:19;21.40;99.90
12957;DHT22;6543;48.836;10.092;2023-06-24T07:12:47;21.10;99.90
12957;DHT22;6543;48.836;10.092;2023-06-24T07:15:14;21.30;99.90
12957;DHT22;6543;48.836;10.092;2023-06-24T07:17:44;21.10;99.90
12957;DHT22;6543;48.836;10.092;2023-06-24T07:20:11;21.40;99.90
12957;DHT22;6543;48.836;10.092;2023-06-24T07:22:38;21.10;99.90
12957;DHT22;6543;48.836;10.092;2023-06-24T07:25:06;20.90;99.90
12957;DHT22;6543;48.836;10.092;2023-06-24T07:27:33;21.10;99.90
12957;DHT22;6543;48.836;10.092;2023-06-24T07:30:01;21.10;99.90
12957;DHT22;6543;48.836;10.092;2023-06-24T07:32:28;21.00;99.90
12957;DHT22;6543;48.836;10.092;2023-06-24T07:34:55;20.90;99.90
12957;DHT22;6543;48.836;10.092;2023-06-24T07:37:22;20.70;99.90
12957;DHT22;6543;48.836;10.092;2023-06-24T07:39:50;21.00;99.90
12957;DHT22;6543;48.836;10.092;2023-06-24T07:42:17;21.40;99.90
12957;DHT22;6543;48.836;10.092;2023-06-24T07:44:44;21.50;99.90
12957;DHT22;6543;48.836;10.092;2023-06-24T07:47:12;21.60;99.90
12957;DHT22;6543;48.836;10.092;2023-06-24T07:49:39;22.00;99.90
12957;DHT22;6543;48.836;10.092;2023-06-24T07:52:07;21.40;99.90
12957;DHT22;6543;48.836;10.092;2023-06-24T07:54:34;21.40;99.90
12957;DHT22;6543;48.836;10.092;2023-06-24T07:57:01;21.70;99.90
12957;DHT22;6543;48.836;10.092;2023-06-24T07:59:29;22.00;99.90
12957;DHT22;6543;48.836;10.092;2023-06-24T08:01:59;22.20;99.90
12957;DHT22;6543;48.836;10.092;2023-06-24T08:04:27;22.50;99.90
12957;DHT22;6543;48.836;10.092;2023-06-24T08:06:54;22.70;99.90
12957;DHT22;6543;48.836;10.092;2023-06-24T08:09:21;22.50;99.90
12957;DHT22;6543;48.836;10.092;2023-06-24T08:11:48;22.00;99.90
12957;DHT22;6543;48.836;10.092;2023-06-24T08:14:15;22.10;99.90
12957;DHT22;6543;48.836;10.092;2023-06-24T08:16:42;22.70;99.90
12957;DHT22;6543;48.836;10.092;2023-06-24T08:19:09;21.70;99.90
12957;DHT22;6543;48.836;10.092;2023-06-24T08:21:37;22.30;99.90
12957;DHT22;6543;48.836;10.092;2023-06-24T08:24:05;22.40;99.90
12957;DHT22;6543;48.836;10.092;2023-06-24T08:26:32;22.50;99.90
12957;DHT22;6543;48.836;10.092;2023-06-24T08:29:00;22.80;99.90
12957;DHT22;6543;48.836;10.092;2023-06-24T08:31:27;23.20;99.90
12957;DHT22;6543;48.836;10.092;2023-06-24T08:33:54;23.20;99.90
12957;DHT22;6543;48.836;10.092;2023-06-24T08:36:28;23.40;99.90
12957;DHT22;6543;48.836;10.092;2023-06-24T08:38:57;23.80;99.90
12957;DHT22;6543;48.836;10.092;2023-06-24T08:41:25;23.90;99.90
12957;DHT22;6543;48.836;10.092;2023-06-24T08:43:52;23.70;99.90
12957;DHT22;6543;48.836;10.092;2023-06-24T08:46:21;23.80;99.90
12957;DHT22;6543;48.836;10.092;2023-06-24T08:48:56;23.70;99.90
12957;DHT22;6543;48.836;10.092;2023-06-24T08:51:27;23.50;99.90
12957;DHT22;6543;48.836;10.092;2023-06-24T08:53:58;23.30;99.90
12957;DHT22;6543;48.836;10.092;2023-06-24T08:56:26;23.40;99.90
12957;DHT22;6543;48.836;10.092;2023-06-24T08:58:53;23.30;99.90
12957;DHT22;6543;48.836;10.092;2023-06-24T09:01:21;23.40;99.90
12957;DHT22;6543;48.836;10.092;2023-06-24T09:03:48;23.10;99.90
12957;DHT22;6543;48.836;10.092;2023-06-24T09:06:15;22.70;99.90
12957;DHT22;6543;48.836;10.092;2023-06-24T09:08:52;22.70;99.90
12957;DHT22;6543;48.836;10.092;2023-06-24T09:11:23;22.70;99.90
12957;DHT22;6543;48.836;10.092;2023-06-24T09:13:54;22.60;99.90
12957;DHT22;6543;48.836;10.092;2023-06-24T09:18:50;22.90;99.90
12957;DHT22;6543;48.836;10.092;2023-06-24T09:21:23;22.80;99.90
12957;DHT22;6543;48.836;10.092;2023-06-24T09:23:53;22.60;99.90
12957;DHT22;6543;48.836;10.092;2023-06-24T09:26:23;21.70;99.90
12957;DHT22;6543;48.836;10.092;2023-06-24T09:28:51;23.00;99.90
12957;DHT22;6543;48.836;10.092;2023-06-24T09:31:18;23.10;99.90
12957;DHT22;6543;48.836;10.092;2023-06-24T09:33:46;23.20;99.90
12957;DHT22;6543;48.836;10.092;2023-06-24T09:36:13;23.20;99.90
12957;DHT22;6543;48.836;10.092;2023-06-24T09:38:41;23.10;99.90
12957;DHT22;6543;48.836;10.092;2023-06-24T09:41:10;22.60;99.90
12957;DHT22;6543;48.836;10.092;2023-06-24T09:43:39;22.80;99.90
12957;DHT22;6543;48.836;10.092;2023-06-24T09:46:07;23.50;99.90
12957;DHT22;6543;48.836;10.092;2023-06-24T09:48:34;23.40;99.90
12957;DHT22;6543;48.836;10.092;2023-06-24T09:51:03;23.60;99.90
12957;DHT22;6543;48.836;10.092;2023-06-24T09:53:33;23.60;99.90
12957;DHT22;6543;48.836;10.092;2023-06-24T09:56:03;23.90;99.90
12957;DHT22;6543;48.836;10.092;2023-06-24T09:58:35;23.30;99.90
12957;DHT22;6543;48.836;10.092;2023-06-24T10:01:05;23.00;99.90
12957;DHT22;6543;48.836;10.092;2023-06-24T10:03:34;23.30;99.90
12957;DHT22;6543;48.836;10.092;2023-06-24T10:06:02;23.50;99.90
12957;DHT22;6543;48.836;10.092;2023-06-24T10:08:30;23.90;99.90
12957;DHT22;6543;48.836;10.092;2023-06-24T10:10:58;23.90;99.90
12957;DHT22;6543;48.836;10.092;2023-06-24T10:13:25;23.60;99.90
12957;DHT22;6543;48.836;10.092;2023-06-24T10:15:54;23.70;99.90
12957;DHT22;6543;48.836;10.092;2023-06-24T10:18:36;24.20;99.90
12957;DHT22;6543;48.836;10.092;2023-06-24T10:21:04;25.20;99.90
12957;DHT22;6543;48.836;10.092;2023-06-24T10:23:32;25.70;99.90
12957;DHT22;6543;48.836;10.092;2023-06-24T10:25:59;25.70;99.90
12957;DHT22;6543;48.836;10.092;2023-06-24T10:28:26;26.00;99.90
12957;DHT22;6543;48.836;10.092;2023-06-24T10:30:56;26.00;99.90
12957;DHT22;6543;48.836;10.092;2023-06-24T10:33:24;25.00;99.90
12957;DHT22;6543;48.836;10.092;2023-06-24T10:35:52;24.60;99.90
12957;DHT22;6543;48.836;10.092;2023-06-24T10:38:19;24.50;99.90
12957;DHT22;6543;48.836;10.092;2023-06-24T10:40:49;24.20;99.90
12957;DHT22;6543;48.836;10.092;2023-06-24T10:43:26;24.30;99.90
12957;DHT22;6543;48.836;10.092;2023-06-24T10:45:55;24.00;99.90
12957;DHT22;6543;48.836;10.092;2023-06-24T10:48:23;23.80;99.90
12957;DHT22;6543;48.836;10.092;2023-06-24T10:50:51;24.10;99.90
12957;DHT22;6543;48.836;10.092;2023-06-24T10:53:19;24.10;99.90
12957;DHT22;6543;48.836;10.092;2023-06-24T10:55:46;23.90;99.90
12957;DHT22;6543;48.836;10.092;2023-06-24T10:58:14;23.70;99.90
12957;DHT22;6543;48.836;10.092;2023-06-24T11:00:42;23.90;99.90
12957;DHT22;6543;48.836;10.092;2023-06-24T11:03:10;24.00;99.90
12957;DHT22;6543;48.836;10.092;2023-06-24T11:05:39;24.10;99.90
12957;DHT22;6543;48.836;10.092;2023-06-24T11:08:08;24.30;99.90
12957;DHT22;6543;48.836;10.092;2023-06-24T11:10:42;24.50;99.90
12957;DHT22;6543;48.836;10.092;2023-06-24T11:13:10;24.80;99.90
12957;DHT22;6543;48.836;10.092;2023-06-24T11:15:38;25.30;99.90
12957;DHT22;6543;48.836;10.092;2023-06-24T11:18:08;25.70;99.90
12957;DHT22;6543;48.836;10.092;2023-06-24T11:20:36;26.10;99.50
12957;DHT22;6543;48.836;10.092;2023-06-24T11:23:08;26.10;99.10
12957;DHT22;6543;48.836;10.092;2023-06-24T11:25:39;26.10;98.50
12957;DHT22;6543;48.836;10.092;2023-06-24T11:28:13;26.30;97.90
12957;DHT22;6543;48.836;10.092;2023-06-24T11:30:40;25.80;97.50
12957;DHT22;6543;48.836;10.092;2023-06-24T11:33:07;25.20;98.20
12957;DHT22;6543;48.836;10.092;2023-06-24T11:35:34;25.30;98.30
12957;DHT22;6543;48.836;10.092;2023-06-24T11:38:03;25.30;99.30
12957;DHT22;6543;48.836;10.092;2023-06-24T11:40:32;24.90;99.90
12957;DHT22;6543;48.836;10.092;2023-06-24T11:43:00;24.80;99.80
12957;DHT22;6543;48.836;10.092;2023-06-24T11:45:27;24.70;99.70
12957;DHT22;6543;48.836;10.092;2023-06-24T11:48:02;24.80;99.10
12957;DHT22;6543;48.836;10.092;2023-06-24T11:50:30;25.20;99.10
12957;DHT22;6543;48.836;10.092;2023-06-24T11:52:57;25.50;98.60
12957;DHT22;6543;48.836;10.092;2023-06-24T11:55:25;25.00;98.90
12957;DHT22;6543;48.836;10.092;2023-06-24T11:57:58;25.40;98.60
12957;DHT22;6543;48.836;10.092;2023-06-24T12:00:27;25.50;98.10
12957;DHT22;6543;48.836;10.092;2023-06-24T12:02:56;25.50;97.50
12957;DHT22;6543;48.836;10.092;2023-06-24T12:05:24;25.40;97.80
12957;DHT22;6543;48.836;10.092;2023-06-24T12:07:58;25.50;95.50
12957;DHT22;6543;48.836;10.092;2023-06-24T12:10:26;25.70;95.60
12957;DHT22;6543;48.836;10.092;2023-06-24T12:12:54;26.00;95.10
12957;DHT22;6543;48.836;10.092;2023-06-24T12:15:22;25.50;95.10
12957;DHT22;6543;48.836;10.092;2023-06-24T12:17:49;25.40;95.10
12957;DHT22;6543;48.836;10.092;2023-06-24T12:20:16;25.60;95.20
12957;DHT22;6543;48.836;10.092;2023-06-24T12:22:44;25.50;95.00
12957;DHT22;6543;48.836;10.092;2023-06-24T12:25:11;24.20;94.40
12957;DHT22;6543;48.836;10.092;2023-06-24T12:27:38;25.40;94.90
12957;DHT22;6543;48.836;10.092;2023-06-24T12:30:07;25.50;94.90
12957;DHT22;6543;48.836;10.092;2023-06-24T12:32:36;25.20;95.10
12957;DHT22;6543;48.836;10.092;2023-06-24T12:35:04;25.30;95.30
12957;DHT22;6543;48.836;10.092;2023-06-24T12:37:34;25.50;95.00
12957;DHT22;6543;48.836;10.092;2023-06-24T12:40:01;26.00;94.60
12957;DHT22;6543;48.836;10.092;2023-06-24T12:42:28;26.50;94.10
12957;DHT22;6543;48.836;10.092;2023-06-24T12:44:55;26.60;93.20
12957;DHT22;6543;48.836;10.092;2023-06-24T12:47:22;26.10;93.20
12957;DHT22;6543;48.836;10.092;2023-06-24T12:49:50;25.50;93.20
12957;DHT22;6543;48.836;10.092;2023-06-24T12:52:18;25.40;92.90
12957;DHT22;6543;48.836;10.092;2023-06-24T12:54:45;25.70;92.90
12957;DHT22;6543;48.836;10.092;2023-06-24T12:57:12;25.40;92.70
12957;DHT22;6543;48.836;10.092;2023-06-24T12:59:39;25.50;93.00
12957;DHT22;6543;48.836;10.092;2023-06-24T13:02:06;26.00;92.60
12957;DHT22;6543;48.836;10.092;2023-06-24T13:04:33;26.50;92.30
12957;DHT22;6543;48.836;10.092;2023-06-24T13:07:01;26.90;92.20
12957;DHT22;6543;48.836;10.092;2023-06-24T13:09:29;26.50;91.50
12957;DHT22;6543;48.836;10.092;2023-06-24T13:11:56;26.00;91.80
12957;DHT22;6543;48.836;10.092;2023-06-24T13:14:22;26.30;91.60
12957;DHT22;6543;48.836;10.092;2023-06-24T13:16:51;26.40;92.00
12957;DHT22;6543;48.836;10.092;2023-06-24T13:19:18;26.10;91.60
12957;DHT22;6543;48.836;10.092;2023-06-24T13:21:45;25.80;91.80
12957;DHT22;6543;48.836;10.092;2023-06-24T13:24:13;26.30;91.80
12957;DHT22;6543;48.836;10.092;2023-06-24T13:26:40;26.30;91.80
12957;DHT22;6543;48.836;10.092;2023-06-24T13:29:07;26.50;91.60
12957;DHT22;6543;48.836;10.092;2023-06-24T13:31:34;26.50;91.40
12957;DHT22;6543;48.836;10.092;2023-06-24T13:34:01;26.20;91.80
12957;DHT22;6543;48.836;10.092;2023-06-24T13:36:31;26.10;91.80
12957;DHT22;6543;48.836;10.092;2023-06-24T13:39:01;25.90;91.60
12957;DHT22;6543;48.836;10.092;2023-06-24T13:41:30;25.80;91.50
12957;DHT22;6543;48.836;10.092;2023-06-24T13:43:59;25.90;91.70
12957;DHT22;6543;48.836;10.092;2023-06-24T13:46:27;25.80;91.40
12957;DHT22;6543;48.836;10.092;2023-06-24T13:48:54;26.20;91.60
12957;DHT22;6543;48.836;10.092;2023-06-24T13:51:23;25.90;91.10
12957;DHT22;6543;48.836;10.092;2023-06-24T13:53:51;26.00;91.30
12957;DHT22;6543;48.836;10.092;2023-06-24T13:56:19;26.50;91.00
12957;DHT22;6543;48.836;10.092;2023-06-24T13:58:48;26.80;90.90
12957;DHT22;6543;48.836;10.092;2023-06-24T14:01:15;26.90;90.80
12957;DHT22;6543;48.836;10.092;2023-06-24T14:03:43;27.10;90.70
12957;DHT22;6543;48.836;10.092;2023-06-24T14:06:13;27.20;90.50
12957;DHT22;6543;48.836;10.092;2023-06-24T14:08:40;27.40;90.20
12957;DHT22;6543;48.836;10.092;2023-06-24T14:11:07;27.40;90.00
12957;DHT22;6543;48.836;10.092;2023-06-24T14:13:34;27.70;90.00
12957;DHT22;6543;48.836;10.092;2023-06-24T14:16:04;27.40;90.00
12957;DHT22;6543;48.836;10.092;2023-06-24T14:18:31;26.80;90.50
12957;DHT22;6543;48.836;10.092;2023-06-24T14:20:58;26.50;90.60
12957;DHT22;6543;48.836;10.092;2023-06-24T14:23:25;26.00;91.20
12957;DHT22;6543;48.836;10.092;2023-06-24T14:25:52;25.80;90.90
12957;DHT22;6543;48.836;10.092;2023-06-24T14:28:19;25.80;91.30
12957;DHT22;6543;48.836;10.092;2023-06-24T14:30:46;26.20;91.40
12957;DHT22;6543;48.836;10.092;2023-06-24T14:33:17;26.60;91.10
12957;DHT22;6543;48.836;10.092;2023-06-24T14:35:44;26.70;90.80
12957;DHT22;6543;48.836;10.092;2023-06-24T14:38:11;27.30;90.40
12957;DHT22;6543;48.836;10.092;2023-06-24T14:40:38;28.00;90.20
12957;DHT22;6543;48.836;10.092;2023-06-24T14:45:32;27.80;90.30
12957;DHT22;6543;48.836;10.092;2023-06-24T14:47:59;27.70;90.30
12957;DHT22;6543;48.836;10.092;2023-06-24T14:50:27;28.20;90.40
12957;DHT22;6543;48.836;10.092;2023-06-24T14:52:54;28.30;88.50
12957;DHT22;6543;48.836;10.092;2023-06-24T14:55:21;28.70;87.90
12957;DHT22;6543;48.836;10.092;2023-06-24T14:57:48;28.20;87.60
12957;DHT22;6543;48.836;10.092;2023-06-24T15:00:15;28.70;86.50
12957;DHT22;6543;48.836;10.092;2023-06-24T15:02:42;29.80;84.30
12957;DHT22;6543;48.836;10.092;2023-06-24T15:05:09;29.60;83.10
12957;DHT22;6543;48.836;10.092;2023-06-24T15:07:37;28.90;85.80
12957;DHT22;6543;48.836;10.092;2023-06-24T15:10:05;27.50;86.50
12957;DHT22;6543;48.836;10.092;2023-06-24T15:12:32;27.30;86.30
12957;DHT22;6543;48.836;10.092;2023-06-24T15:15:00;27.80;86.10
12957;DHT22;6543;48.836;10.092;2023-06-24T15:17:26;28.10;85.30
12957;DHT22;6543;48.836;10.092;2023-06-24T15:19:55;28.90;84.40
12957;DHT22;6543;48.836;10.092;2023-06-24T15:22:22;29.70;82.90
12957;DHT22;6543;48.836;10.092;2023-06-24T15:24:50;29.90;83.00
12957;DHT22;6543;48.836;10.092;2023-06-24T15:27:17;29.20;82.70
12957;DHT22;6543;48.836;10.092;2023-06-24T15:29:44;29.10;83.20
12957;DHT22;6543;48.836;10.092;2023-06-24T15:32:11;29.80;82.60
12957;DHT22;6543;48.836;10.092;2023-06-24T15:34:38;29.80;83.60
12957;DHT22;6543;48.836;10.092;2023-06-24T15:37:05;29.20;84.30
12957;DHT22;6543;48.836;10.092;2023-06-24T15:39:32;29.10;82.90
12957;DHT22;6543;48.836;10.092;2023-06-24T15:42:01;28.70;83.50
12957;DHT22;6543;48.836;10.092;2023-06-24T15:44:28;27.90;83.00